Time;durP1;ratioP1;P1;durP2;ratioP2;P2;SDS_P1;SDS_P2;PMS_P1;PMS_P2;Temp;Humidity;BMP_temperature;BMP_pressure;BME280_temperature;BME280_humidity;BME280_pressure;Samples;Min_cycle;Max_cycle;Signal;HPM_P1;HPM_P2
2022/05/29 00:00:46;;;;;;;;;;;20.10;55.60;;;;;;4982715;28;20577;-56
2022/05/29 00:03:11;;;;;;;;;;;20.10;55.40;;;;;;4983102;28;19945;-56
2022/05/29 00:05:37;;;;;;;;;;;20.00;55.40;;;;;;4981568;28;19922;-57
2022/05/29 00:08:02;;;;;;;;;;;20.10;55.60;;;;;;4981825;28;20316;-56
2022/05/29 00:10:28;;;;;;;;;;;20.10;55.50;;;;;;4981623;28;19929;-54
2022/05/29 00:12:54;;;;;;;;;;;20.10;55.50;;;;;;4983425;28;19980;-59
2022/05/29 00:15:19;;;;;;;;;;;20.00;55.40;;;;;;4983238;28;19918;-56
2022/05/29 00:17:45;;;;;;;;;;;20.10;55.50;;;;;;4983247;28;20343;-55
2022/05/29 00:20:10;;;;;;;;;;;20.10;55.60;;;;;;4981817;28;19914;-55
2022/05/29 00:22:35;;;;;;;;;;;20.00;55.40;;;;;;4982827;28;20466;-56
2022/05/29 00:25:01;;;;;;;;;;;20.10;55.40;;;;;;4997412;28;19922;-55
2022/05/29 00:27:27;;;;;;;;;;;20.10;55.40;;;;;;4981509;28;19925;-56
2022/05/29 00:29:53;;;;;;;;;;;20.00;55.40;;;;;;4982359;28;20367;-55
2022/05/29 00:32:19;;;;;;;;;;;20.10;55.50;;;;;;4983043;28;20400;-55
2022/05/29 00:34:44;;;;;;;;;;;20.10;55.40;;;;;;4981105;28;19957;-54
2022/05/29 00:37:09;;;;;;;;;;;20.10;55.40;;;;;;4982677;28;20041;-55
2022/05/29 00:39:35;;;;;;;;;;;20.10;55.40;;;;;;4994937;28;20318;-57
2022/05/29 00:42:04;;;;;;;;;;;20.00;55.40;;;;;;4982940;28;19972;-53
2022/05/29 00:44:29;;;;;;;;;;;20.00;55.30;;;;;;4996778;28;20294;-57
2022/05/29 00:47:02;;;;;;;;;;;20.10;55.30;;;;;;4982951;28;19922;-56
2022/05/29 00:49:28;;;;;;;;;;;20.00;55.70;;;;;;4980814;28;20322;-57
2022/05/29 00:51:55;;;;;;;;;;;20.10;55.00;;;;;;4983580;28;20005;-57
2022/05/29 00:54:21;;;;;;;;;;;20.00;55.00;;;;;;4980849;28;19917;-54
2022/05/29 00:56:46;;;;;;;;;;;20.00;55.30;;;;;;4983089;28;19918;-55
2022/05/29 00:59:21;;;;;;;;;;;20.00;55.10;;;;;;4982215;28;19944;-58
2022/05/29 01:01:47;;;;;;;;;;;20.00;55.40;;;;;;4964182;28;19968;-58
2022/05/29 01:04:13;;;;;;;;;;;20.10;55.40;;;;;;4956279;28;19962;-58
2022/05/29 01:06:38;;;;;;;;;;;20.10;55.10;;;;;;4993580;28;19918;-57
2022/05/29 01:09:05;;;;;;;;;;;20.10;54.90;;;;;;4981781;28;19925;-56
2022/05/29 01:11:50;;;;;;;;;;;20.10;54.80;;;;;;4997449;28;20027;-57
2022/05/29 01:14:15;;;;;;;;;;;20.10;54.70;;;;;;4980088;28;19925;-56
2022/05/29 01:16:50;;;;;;;;;;;20.10;54.70;;;;;;4982367;28;19914;-58
2022/05/29 01:19:22;;;;;;;;;;;20.10;54.60;;;;;;4981602;28;19918;-55
2022/05/29 01:21:56;;;;;;;;;;;20.10;54.60;;;;;;4982481;28;19921;-57
2022/05/29 01:24:39;;;;;;;;;;;20.10;54.50;;;;;;4983056;28;20406;-56
2022/05/29 01:27:07;;;;;;;;;;;20.00;54.50;;;;;;4981038;28;21867;-56
2022/05/29 01:29:38;;;;;;;;;;;20.10;54.50;;;;;;4978932;28;19957;-55
2022/05/29 01:32:11;;;;;;;;;;;20.10;54.50;;;;;;4982773;28;19949;-55
2022/05/29 01:34:44;;;;;;;;;;;20.10;54.50;;;;;;4982425;28;20290;-55
2022/05/29 01:37:29;;;;;;;;;;;20.10;54.50;;;;;;4982050;28;19929;-56
2022/05/29 01:39:59;;;;;;;;;;;20.10;54.40;;;;;;4996350;28;19918;-57
2022/05/29 01:42:38;;;;;;;;;;;20.00;54.30;;;;;;4977346;28;19914;-57
2022/05/29 01:45:10;;;;;;;;;;;20.00;54.30;;;;;;4962940;28;19920;-57
2022/05/29 01:47:41;;;;;;;;;;;20.00;54.20;;;;;;4995596;28;19937;-58
2022/05/29 01:50:08;;;;;;;;;;;20.00;54.30;;;;;;4995912;28;19921;-55
2022/05/29 01:52:35;;;;;;;;;;;20.00;54.10;;;;;;4996296;28;19921;-56
2022/05/29 01:55:19;;;;;;;;;;;20.00;54.10;;;;;;4996434;28;20399;-56
2022/05/29 01:57:45;;;;;;;;;;;20.00;54.10;;;;;;4963092;28;20414;-56
2022/05/29 02:00:10;;;;;;;;;;;20.00;54.00;;;;;;4978951;28;19936;-55
2022/05/29 02:02:41;;;;;;;;;;;20.00;54.00;;;;;;4980913;28;19918;-55
2022/05/29 02:05:09;;;;;;;;;;;20.00;53.90;;;;;;4995458;28;20008;-56
2022/05/29 02:07:47;;;;;;;;;;;20.00;54.40;;;;;;4980923;28;20388;-55
2022/05/29 02:10:16;;;;;;;;;;;20.00;54.40;;;;;;4973767;28;19925;-57
2022/05/29 02:12:43;;;;;;;;;;;19.90;54.40;;;;;;4991451;28;19960;-58
2022/05/29 02:15:10;;;;;;;;;;;19.90;54.50;;;;;;4980891;28;20375;-56
2022/05/29 02:17:40;;;;;;;;;;;19.80;54.40;;;;;;4992170;28;20032;-58
2022/05/29 02:20:07;;;;;;;;;;;19.90;54.70;;;;;;4978638;28;20276;-57
2022/05/29 02:22:35;;;;;;;;;;;19.90;54.60;;;;;;4976799;28;19925;-55
2022/05/29 02:25:13;;;;;;;;;;;19.80;54.70;;;;;;4995933;28;20429;-57
2022/05/29 02:27:42;;;;;;;;;;;19.80;54.70;;;;;;4993288;28;19968;-54
2022/05/29 02:30:08;;;;;;;;;;;19.80;54.70;;;;;;4980828;28;19933;-54
2022/05/29 02:32:37;;;;;;;;;;;19.80;54.80;;;;;;4978645;28;20383;-59
2022/05/29 02:35:02;;;;;;;;;;;19.80;54.70;;;;;;4980339;28;21460;-55
2022/05/29 02:37:41;;;;;;;;;;;19.80;54.70;;;;;;4977448;28;20623;-58
2022/05/29 02:40:08;;;;;;;;;;;19.80;54.70;;;;;;4994876;28;20524;-58
2022/05/29 02:42:39;;;;;;;;;;;19.80;54.70;;;;;;4980763;28;19952;-55
2022/05/29 02:45:07;;;;;;;;;;;19.80;55.60;;;;;;4995347;28;19968;-57
2022/05/29 02:47:45;;;;;;;;;;;19.80;54.70;;;;;;4993113;28;19928;-56
2022/05/29 02:50:17;;;;;;;;;;;19.80;54.60;;;;;;4978721;28;19914;-56
2022/05/29 02:52:43;;;;;;;;;;;19.80;54.60;;;;;;4975292;28;19921;-54
2022/05/29 02:55:08;;;;;;;;;;;19.80;54.50;;;;;;4994955;28;19922;-55
2022/05/29 02:57:34;;;;;;;;;;;19.80;54.50;;;;;;4978275;28;19918;-57
2022/05/29 03:00:03;;;;;;;;;;;19.80;54.50;;;;;;4979844;28;19914;-56
2022/05/29 03:02:39;;;;;;;;;;;19.70;54.40;;;;;;4984831;28;20404;-56
2022/05/29 03:05:04;;;;;;;;;;;19.80;54.50;;;;;;4995242;28;19947;-56
2022/05/29 03:07:29;;;;;;;;;;;19.70;54.60;;;;;;4977650;28;20438;-57
2022/05/29 03:09:55;;;;;;;;;;;19.70;54.30;;;;;;4979080;28;19932;-57
2022/05/29 03:12:20;;;;;;;;;;;19.70;54.30;;;;;;4977246;28;19925;-55
2022/05/29 03:15:04;;;;;;;;;;;19.70;54.40;;;;;;4979708;28;19950;-57
2022/05/29 03:17:34;;;;;;;;;;;19.70;54.30;;;;;;4968082;28;20222;-57
2022/05/29 03:20:06;;;;;;;;;;;19.70;54.40;;;;;;4978873;28;20294;-56
2022/05/29 03:22:34;;;;;;;;;;;19.70;54.30;;;;;;4976912;28;19914;-57
2022/05/29 03:25:01;;;;;;;;;;;19.70;54.30;;;;;;4979562;28;19918;-57
2022/05/29 03:27:31;;;;;;;;;;;19.70;54.40;;;;;;4992918;28;19921;-56
2022/05/29 03:30:05;;;;;;;;;;;19.70;54.30;;;;;;4977478;28;19914;-57
2022/05/29 03:32:31;;;;;;;;;;;19.70;54.20;;;;;;4974381;28;19940;-57
2022/05/29 03:34:56;;;;;;;;;;;19.70;54.60;;;;;;4994243;28;19968;-56
2022/05/29 03:37:22;;;;;;;;;;;19.80;54.10;;;;;;4976431;28;20458;-55
2022/05/29 03:39:47;;;;;;;;;;;19.80;54.00;;;;;;4978754;28;20414;-58
2022/05/29 03:42:13;;;;;;;;;;;19.80;54.30;;;;;;4978882;28;19914;-57
2022/05/29 03:44:38;;;;;;;;;;;19.80;54.30;;;;;;4980296;28;19918;-57
2022/05/29 03:47:04;;;;;;;;;;;19.80;54.10;;;;;;4981136;28;20645;-57
2022/05/29 03:49:30;;;;;;;;;;;19.80;53.80;;;;;;4979999;28;19942;-55
2022/05/29 03:51:55;;;;;;;;;;;19.80;54.30;;;;;;4980415;28;19964;-59
2022/05/29 03:54:21;;;;;;;;;;;19.80;54.10;;;;;;4979336;28;19921;-58
2022/05/29 03:56:46;;;;;;;;;;;19.80;54.00;;;;;;4977266;28;20607;-57
2022/05/29 03:59:11;;;;;;;;;;;19.80;53.90;;;;;;4978537;28;20206;-56
2022/05/29 04:01:37;;;;;;;;;;;19.80;53.90;;;;;;4973636;28;19914;-57
2022/05/29 04:04:03;;;;;;;;;;;19.70;53.90;;;;;;4978965;28;19914;-59
2022/05/29 04:06:28;;;;;;;;;;;19.80;54.20;;;;;;4985122;28;19980;-58
2022/05/29 04:14:23;;;;;;;;;;;19.80;54.10;;;;;;4979743;28;20118;-58
2022/05/29 04:16:49;;;;;;;;;;;19.80;54.20;;;;;;4982621;28;19917;-59
2022/05/29 04:19:14;;;;;;;;;;;19.70;54.10;;;;;;4983975;28;19988;-58
2022/05/29 04:21:40;;;;;;;;;;;19.70;54.40;;;;;;4982707;28;20295;-59
2022/05/29 04:24:06;;;;;;;;;;;19.80;54.30;;;;;;4984651;28;19914;-58
2022/05/29 04:26:32;;;;;;;;;;;19.80;54.30;;;;;;4978415;28;20454;-58
2022/05/29 04:28:59;;;;;;;;;;;19.80;54.30;;;;;;4981667;28;19925;-58
2022/05/29 04:31:25;;;;;;;;;;;19.80;54.40;;;;;;4983778;28;19918;-57
2022/05/29 04:33:50;;;;;;;;;;;19.80;54.80;;;;;;4981793;28;19965;-59
2022/05/29 04:36:15;;;;;;;;;;;19.90;54.10;;;;;;4982451;28;20306;-56
2022/05/29 04:38:41;;;;;;;;;;;19.90;53.70;;;;;;5008598;22;20559;-68
2022/05/29 04:41:07;;;;;;;;;;;19.80;53.60;;;;;;5005196;28;19914;-66
2022/05/29 04:43:32;;;;;;;;;;;19.80;53.60;;;;;;4999764;28;20365;-67
2022/05/29 04:45:58;;;;;;;;;;;19.80;53.70;;;;;;5003502;28;19917;-67
2022/05/29 04:48:23;;;;;;;;;;;19.70;53.60;;;;;;5006499;28;20560;-67
2022/05/29 04:50:54;;;;;;;;;;;19.70;53.60;;;;;;5006813;28;19916;-65
2022/05/29 04:53:20;;;;;;;;;;;19.70;53.60;;;;;;5006938;28;19917;-68
2022/05/29 04:55:45;;;;;;;;;;;19.70;53.60;;;;;;5007386;28;19913;-68
2022/05/29 04:58:10;;;;;;;;;;;19.70;53.60;;;;;;5006913;28;20377;-68
2022/05/29 05:00:36;;;;;;;;;;;19.70;53.50;;;;;;5006797;28;19931;-69
2022/05/29 05:03:01;;;;;;;;;;;19.70;53.60;;;;;;5006525;28;19916;-67
2022/05/29 05:05:27;;;;;;;;;;;19.70;53.60;;;;;;5007043;28;19967;-69
2022/05/29 05:07:53;;;;;;;;;;;19.70;53.70;;;;;;5006853;28;19914;-69
2022/05/29 05:10:18;;;;;;;;;;;19.70;53.60;;;;;;5006404;28;19909;-67
2022/05/29 05:12:44;;;;;;;;;;;19.70;53.50;;;;;;5006649;28;19983;-67
2022/05/29 05:15:10;;;;;;;;;;;19.70;53.70;;;;;;5022296;28;19921;-68
2022/05/29 05:17:35;;;;;;;;;;;19.70;53.70;;;;;;5007129;28;19910;-68
2022/05/29 05:20:01;;;;;;;;;;;19.70;53.70;;;;;;5006407;28;20397;-67
2022/05/29 05:22:26;;;;;;;;;;;19.70;53.80;;;;;;5005901;28;20527;-67
2022/05/29 05:24:51;;;;;;;;;;;19.70;53.80;;;;;;5007576;28;20329;-68
2022/05/29 05:27:17;;;;;;;;;;;19.70;53.80;;;;;;5006528;28;19913;-68
2022/05/29 05:29:43;;;;;;;;;;;19.70;53.80;;;;;;5007113;28;19960;-68
2022/05/29 05:32:08;;;;;;;;;;;19.70;53.70;;;;;;5009848;28;20016;-68
2022/05/29 05:34:34;;;;;;;;;;;19.70;53.70;;;;;;5009298;28;19917;-67
2022/05/29 05:36:59;;;;;;;;;;;19.70;53.80;;;;;;5007854;28;20296;-68
2022/05/29 05:39:25;;;;;;;;;;;19.70;53.60;;;;;;5008293;28;19925;-67
2022/05/29 05:41:50;;;;;;;;;;;19.70;53.70;;;;;;5011555;28;19910;-68
2022/05/29 05:44:16;;;;;;;;;;;19.70;54.00;;;;;;5012179;28;20103;-68
2022/05/29 05:46:44;;;;;;;;;;;19.70;53.70;;;;;;5007056;28;19932;-68
2022/05/29 05:49:10;;;;;;;;;;;19.70;53.80;;;;;;5005123;28;19914;-67
2022/05/29 05:51:35;;;;;;;;;;;19.60;53.80;;;;;;5006130;28;19920;-68
2022/05/29 05:54:01;;;;;;;;;;;19.70;53.90;;;;;;5005902;28;19910;-67
2022/05/29 05:56:26;;;;;;;;;;;19.70;53.80;;;;;;5005807;28;20396;-68
2022/05/29 05:58:52;;;;;;;;;;;19.60;53.90;;;;;;5005049;28;19955;-67
2022/05/29 06:01:17;;;;;;;;;;;19.60;53.80;;;;;;5006541;28;19909;-68
2022/05/29 06:03:42;;;;;;;;;;;19.70;53.90;;;;;;5006091;28;19913;-68
2022/05/29 06:06:08;;;;;;;;;;;19.60;53.90;;;;;;5007345;28;20318;-67
2022/05/29 06:08:34;;;;;;;;;;;19.60;53.90;;;;;;5006176;28;19920;-67
2022/05/29 06:11:01;;;;;;;;;;;19.60;54.00;;;;;;5008031;28;21567;-68
2022/05/29 06:13:26;;;;;;;;;;;19.60;54.00;;;;;;5007655;28;20003;-67
2022/05/29 06:15:52;;;;;;;;;;;19.60;53.90;;;;;;5008932;28;19909;-68
2022/05/29 06:18:17;;;;;;;;;;;19.50;53.70;;;;;;5009063;28;19917;-68
2022/05/29 06:20:43;;;;;;;;;;;19.50;54.10;;;;;;5010077;28;19975;-67
2022/05/29 06:23:09;;;;;;;;;;;19.60;54.00;;;;;;5004444;28;19961;-68
2022/05/29 06:25:34;;;;;;;;;;;19.60;53.90;;;;;;5005882;28;20671;-67
2022/05/29 06:28:01;;;;;;;;;;;19.60;54.00;;;;;;5006907;28;20442;-67
2022/05/29 06:30:28;;;;;;;;;;;19.60;54.00;;;;;;5006357;28;19909;-66
2022/05/29 06:32:53;;;;;;;;;;;19.60;52.70;;;;;;5009148;28;19914;-69
2022/05/29 06:35:18;;;;;;;;;;;19.40;54.20;;;;;;5005706;28;19916;-68
2022/05/29 06:37:44;;;;;;;;;;;19.50;54.20;;;;;;5005156;28;19913;-66
2022/05/29 06:40:10;;;;;;;;;;;19.50;54.20;;;;;;5004277;28;20296;-68
2022/05/29 06:42:35;;;;;;;;;;;19.60;54.50;;;;;;5005027;28;19921;-69
2022/05/29 06:45:01;;;;;;;;;;;19.60;54.90;;;;;;5004550;28;20343;-67
2022/05/29 06:47:26;;;;;;;;;;;19.60;55.10;;;;;;5004633;28;19916;-65
2022/05/29 06:49:52;;;;;;;;;;;19.60;55.40;;;;;;5004909;28;19910;-68
2022/05/29 06:52:18;;;;;;;;;;;19.60;55.50;;;;;;5004405;28;19913;-66
2022/05/29 06:54:43;;;;;;;;;;;19.60;55.60;;;;;;5004257;28;19913;-67
2022/05/29 06:57:10;;;;;;;;;;;19.60;55.50;;;;;;5002385;28;19909;-66
2022/05/29 07:06:58;;;;;;;;;;;19.60;55.40;;;;;;5004146;28;19909;-67
2022/05/29 07:07:50;;;;;;;;;;;19.60;55.10;;;;;;5017128;28;19925;-65
2022/05/29 07:10:16;;;;;;;;;;;19.60;55.10;;;;;;5011505;28;19913;-66
2022/05/29 07:12:41;;;;;;;;;;;19.60;55.00;;;;;;5004300;28;19918;-67
2022/05/29 07:15:07;;;;;;;;;;;19.60;54.90;;;;;;5002956;28;20292;-67
2022/05/29 07:17:32;;;;;;;;;;;19.60;54.80;;;;;;5018754;28;19948;-66
2022/05/29 07:19:58;;;;;;;;;;;19.60;54.80;;;;;;5003552;28;19975;-67
2022/05/29 07:22:23;;;;;;;;;;;19.60;54.80;;;;;;5004827;28;20602;-66
2022/05/29 07:24:49;;;;;;;;;;;19.60;55.10;;;;;;5004706;28;19975;-66
2022/05/29 07:27:15;;;;;;;;;;;19.60;55.30;;;;;;5004206;28;19913;-67
2022/05/29 07:29:40;;;;;;;;;;;19.60;56.70;;;;;;5003689;28;19913;-66
2022/05/29 07:32:06;;;;;;;;;;;19.70;55.30;;;;;;5003825;28;19916;-68
2022/05/29 07:34:31;;;;;;;;;;;19.60;55.10;;;;;;5003575;28;19991;-65
2022/05/29 07:37:03;;;;;;;;;;;19.60;54.70;;;;;;5004145;28;19910;-68
2022/05/29 07:39:28;;;;;;;;;;;19.60;54.50;;;;;;5003273;28;19963;-68
2022/05/29 07:44:38;;;;;;;;;;;19.60;54.30;;;;;;5003859;28;19952;-66
2022/05/29 07:47:04;;;;;;;;;;;19.60;54.10;;;;;;5003642;28;19917;-67
2022/05/29 07:49:29;;;;;;;;;;;19.50;54.00;;;;;;5003314;28;19921;-68
2022/05/29 07:51:55;;;;;;;;;;;19.50;53.80;;;;;;5004070;28;20011;-68
2022/05/29 07:54:22;;;;;;;;;;;19.50;52.50;;;;;;5004303;28;19909;-68
2022/05/29 07:56:47;;;;;;;;;;;19.30;54.00;;;;;;5004672;28;19913;-68
2022/05/29 07:59:15;;;;;;;;;;;19.40;53.50;;;;;;5003216;28;19920;-67
2022/05/29 08:01:40;;;;;;;;;;;19.50;53.60;;;;;;5003962;28;19917;-67
2022/05/29 08:04:06;;;;;;;;;;;19.50;53.40;;;;;;5005073;28;19914;-67
2022/05/29 08:06:31;;;;;;;;;;;19.50;53.30;;;;;;5006789;28;20024;-67
2022/05/29 08:08:57;;;;;;;;;;;19.50;53.30;;;;;;5006707;28;20388;-67
2022/05/29 08:11:22;;;;;;;;;;;19.30;48.60;;;;;;5007497;28;19914;-67
2022/05/29 08:13:48;;;;;;;;;;;19.30;53.60;;;;;;5006809;28;19921;-68
2022/05/29 08:16:16;;;;;;;;;;;19.30;53.30;;;;;;5007144;28;20676;-67
2022/05/29 08:18:42;;;;;;;;;;;19.40;53.00;;;;;;5006654;28;20365;-68
2022/05/29 08:21:07;;;;;;;;;;;19.40;53.50;;;;;;5007459;28;20428;-66
2022/05/29 08:23:33;;;;;;;;;;;19.40;53.20;;;;;;5007061;28;20743;-67
2022/05/29 08:31:27;;;;;;;;;;;19.50;53.40;;;;;;5007060;28;19964;-68
2022/05/29 08:33:52;;;;;;;;;;;19.50;53.40;;;;;;5007140;28;19909;-67
2022/05/29 08:36:24;;;;;;;;;;;19.40;53.30;;;;;;5007523;28;19960;-68
2022/05/29 08:38:52;;;;;;;;;;;19.50;53.30;;;;;;5005495;28;20288;-67
2022/05/29 08:41:27;;;;;;;;;;;19.50;53.30;;;;;;5008673;28;20044;-67
2022/05/29 08:43:58;;;;;;;;;;;19.50;53.40;;;;;;5022136;28;19956;-68
2022/05/29 08:46:24;;;;;;;;;;;19.50;53.40;;;;;;5018684;28;20401;-67
2022/05/29 08:48:51;;;;;;;;;;;19.50;53.60;;;;;;5004587;28;20539;-67
2022/05/29 08:51:22;;;;;;;;;;;19.50;53.50;;;;;;5006598;28;19917;-67
2022/05/29 08:53:52;;;;;;;;;;;19.50;53.60;;;;;;5021402;28;19920;-67
2022/05/29 08:56:19;;;;;;;;;;;19.50;53.60;;;;;;5019881;28;19920;-67
2022/05/29 08:59:04;;;;;;;;;;;19.50;53.20;;;;;;5003726;28;19917;-68
2022/05/29 09:01:34;;;;;;;;;;;19.50;54.00;;;;;;5005424;28;20591;-66
2022/05/29 09:04:00;;;;;;;;;;;19.40;54.00;;;;;;5020924;28;19913;-67
2022/05/29 09:06:30;;;;;;;;;;;19.40;52.80;;;;;;5019710;28;20012;-67
2022/05/29 09:08:57;;;;;;;;;;;19.40;53.90;;;;;;5005033;28;20395;-65
2022/05/29 09:11:47;;;;;;;;;;;19.40;53.80;;;;;;5005827;28;19988;-67
2022/05/29 09:14:31;;;;;;;;;;;19.40;53.80;;;;;;5005309;28;19914;-66
2022/05/29 09:16:58;;;;;;;;;;;19.40;53.80;;;;;;5005683;28;19914;-66
2022/05/29 09:19:23;;;;;;;;;;;19.50;53.80;;;;;;5003847;28;20075;-67
2022/05/29 09:21:52;;;;;;;;;;;19.50;53.00;;;;;;5006215;28;19935;-65
2022/05/29 09:24:36;;;;;;;;;;;19.40;53.80;;;;;;5021449;28;19920;-68
2022/05/29 09:27:02;;;;;;;;;;;19.50;54.00;;;;;;5006319;28;19920;-68
2022/05/29 09:29:27;;;;;;;;;;;19.50;53.90;;;;;;5005824;28;20291;-67
2022/05/29 09:31:53;;;;;;;;;;;19.50;53.90;;;;;;5005750;28;20466;-68
2022/05/29 09:34:18;;;;;;;;;;;19.40;54.00;;;;;;5005222;28;19910;-67
2022/05/29 09:36:44;;;;;;;;;;;19.40;54.10;;;;;;5005480;28;19917;-68
2022/05/29 09:39:24;;;;;;;;;;;19.40;53.20;;;;;;5004546;28;20048;-68
2022/05/29 09:41:52;;;;;;;;;;;19.40;54.20;;;;;;5003587;28;19932;-64
2022/05/29 09:44:19;;;;;;;;;;;19.20;53.90;;;;;;5020097;28;19913;-67
2022/05/29 09:46:45;;;;;;;;;;;19.30;53.90;;;;;;5005011;28;20416;-65
2022/05/29 09:52:04;;;;;;;;;;;19.40;53.80;;;;;;5005236;28;19913;-66
2022/05/29 09:54:30;;;;;;;;;;;19.40;53.90;;;;;;5005039;28;19913;-67
2022/05/29 09:57:05;;;;;;;;;;;19.50;53.40;;;;;;5005088;28;19971;-68
2022/05/29 09:59:31;;;;;;;;;;;19.40;53.80;;;;;;5004425;28;19909;-67
2022/05/29 10:02:02;;;;;;;;;;;19.50;53.90;;;;;;5004962;28;19916;-67
2022/05/29 10:04:35;;;;;;;;;;;19.50;53.90;;;;;;5019560;28;20174;-67
2022/05/29 10:07:00;;;;;;;;;;;19.40;54.00;;;;;;5020333;28;19910;-69
2022/05/29 10:09:26;;;;;;;;;;;19.40;53.90;;;;;;5003026;28;20375;-67
2022/05/29 10:11:56;;;;;;;;;;;19.40;53.90;;;;;;5003155;28;19909;-68
2022/05/29 10:14:26;;;;;;;;;;;19.40;53.70;;;;;;5004356;28;19964;-65
2022/05/29 10:16:53;;;;;;;;;;;19.40;54.00;;;;;;5004383;28;20440;-66
2022/05/29 10:19:44;;;;;;;;;;;19.30;51.70;;;;;;5004197;28;19906;-66
2022/05/29 10:22:12;;;;;;;;;;;19.00;53.00;;;;;;5001486;28;19971;-66
2022/05/29 10:24:37;;;;;;;;;;;19.10;53.00;;;;;;5004006;28;19909;-67
2022/05/29 10:27:13;;;;;;;;;;;19.20;51.90;;;;;;5004294;28;20220;-67
2022/05/29 10:29:39;;;;;;;;;;;19.10;53.30;;;;;;4982932;28;19987;-65
2022/05/29 10:32:06;;;;;;;;;;;19.10;53.80;;;;;;5000031;28;20510;-68
2022/05/29 10:34:32;;;;;;;;;;;19.30;53.70;;;;;;5017753;28;20761;-67
2022/05/29 10:36:57;;;;;;;;;;;19.40;53.60;;;;;;5004439;28;20276;-67
2022/05/29 10:39:28;;;;;;;;;;;19.10;51.20;;;;;;5003309;28;19917;-63
2022/05/29 10:41:54;;;;;;;;;;;19.10;53.50;;;;;;5004350;28;19936;-66
2022/05/29 10:44:53;;;;;;;;;;;19.20;52.70;;;;;;5007534;28;19912;-67
2022/05/29 10:47:41;;;;;;;;;;;19.00;53.20;;;;;;4970974;28;19918;-67
2022/05/29 10:50:39;;;;;;;;;;;19.10;53.60;;;;;;4982592;28;20442;-65
2022/05/29 10:53:07;;;;;;;;;;;19.10;51.90;;;;;;4964848;28;19991;-66
2022/05/29 10:55:33;;;;;;;;;;;19.10;52.50;;;;;;5002658;28;19910;-67
2022/05/29 10:58:02;;;;;;;;;;;19.10;52.20;;;;;;5004062;28;19905;-66
2022/05/29 11:00:33;;;;;;;;;;;19.00;51.10;;;;;;5018453;28;20473;-67
2022/05/29 11:03:26;;;;;;;;;;;19.00;53.30;;;;;;5018950;28;19905;-66
2022/05/29 11:06:12;;;;;;;;;;;19.10;53.40;;;;;;5002451;28;19910;-65
2022/05/29 11:08:44;;;;;;;;;;;19.20;53.30;;;;;;5001343;28;19913;-66
2022/05/29 11:11:13;;;;;;;;;;;19.30;53.40;;;;;;5003717;28;19925;-66
2022/05/29 11:13:41;;;;;;;;;;;19.30;53.50;;;;;;5003730;28;19948;-66
2022/05/29 11:16:25;;;;;;;;;;;19.30;53.30;;;;;;5003860;28;19910;-66
2022/05/29 11:19:09;;;;;;;;;;;19.40;53.50;;;;;;5003003;28;19945;-67
2022/05/29 11:21:39;;;;;;;;;;;19.30;53.50;;;;;;5003689;28;19909;-65
2022/05/29 11:24:04;;;;;;;;;;;19.30;53.50;;;;;;5003067;28;19913;-66
2022/05/29 11:26:36;;;;;;;;;;;19.40;53.40;;;;;;5003641;28;19963;-67
2022/05/29 11:29:21;;;;;;;;;;;19.40;53.60;;;;;;5002622;28;19959;-66
2022/05/29 11:31:55;;;;;;;;;;;19.40;53.60;;;;;;5003693;28;20216;-67
2022/05/29 11:34:20;;;;;;;;;;;19.20;52.80;;;;;;5013864;28;20436;-66
2022/05/29 11:36:49;;;;;;;;;;;19.20;49.90;;;;;;5004075;28;19916;-66
2022/05/29 11:39:20;;;;;;;;;;;18.70;49.90;;;;;;5006627;28;19918;-66
2022/05/29 11:41:54;;;;;;;;;;;18.90;53.80;;;;;;5007728;28;19909;-66
2022/05/29 11:44:19;;;;;;;;;;;19.00;52.80;;;;;;5007106;28;19945;-66
2022/05/29 11:52:19;;;;;;;;;;;19.00;51.90;;;;;;5006269;28;19920;-66
2022/05/29 11:54:47;;;;;;;;;;;19.20;53.80;;;;;;5006212;28;20027;-66
2022/05/29 11:57:13;;;;;;;;;;;19.30;53.60;;;;;;5022633;28;19949;-63
2022/05/29 11:59:53;;;;;;;;;;;19.40;53.80;;;;;;5007059;28;20257;-67
2022/05/29 12:02:37;;;;;;;;;;;19.40;52.70;;;;;;5006238;28;19971;-66
2022/05/29 12:05:23;;;;;;;;;;;19.40;52.70;;;;;;5006978;28;19913;-66
2022/05/29 12:08:08;;;;;;;;;;;19.40;53.80;;;;;;4999169;28;19920;-66
2022/05/29 12:10:40;;;;;;;;;;;19.30;53.10;;;;;;5011704;28;19916;-66
2022/05/29 12:13:08;;;;;;;;;;;19.20;52.50;;;;;;5005804;28;19951;-66
2022/05/29 12:15:33;;;;;;;;;;;19.30;53.90;;;;;;5005578;28;20635;-66
2022/05/29 12:18:19;;;;;;;;;;;19.30;52.80;;;;;;5021976;28;19905;-66
2022/05/29 12:20:47;;;;;;;;;;;19.30;53.80;;;;;;5006073;28;19906;-65
2022/05/29 12:23:27;;;;;;;;;;;19.40;53.10;;;;;;5007041;28;19952;-67
2022/05/29 12:26:00;;;;;;;;;;;19.20;53.40;;;;;;5007740;28;19917;-65
2022/05/29 12:28:45;;;;;;;;;;;19.20;53.00;;;;;;5007397;28;19972;-65
2022/05/29 12:31:14;;;;;;;;;;;19.20;53.60;;;;;;5007425;28;20360;-67
2022/05/29 12:33:40;;;;;;;;;;;19.40;53.70;;;;;;5005423;28;19909;-65
2022/05/29 12:36:26;;;;;;;;;;;19.40;53.60;;;;;;5005079;28;19905;-67
2022/05/29 12:38:55;;;;;;;;;;;19.50;53.60;;;;;;5005606;28;19918;-68
2022/05/29 12:41:23;;;;;;;;;;;19.50;53.80;;;;;;5006667;28;19952;-67
2022/05/29 12:44:08;;;;;;;;;;;19.40;52.70;;;;;;5006540;28;20585;-68
2022/05/29 12:46:46;;;;;;;;;;;19.30;49.70;;;;;;5006585;28;19905;-66
2022/05/29 12:49:22;;;;;;;;;;;19.30;53.60;;;;;;5005085;28;19917;-67
2022/05/29 12:52:04;;;;;;;;;;;19.40;50.00;;;;;;5007236;28;19993;-67
2022/05/29 12:54:36;;;;;;;;;;;19.20;51.70;;;;;;5004609;28;19910;-66
2022/05/29 12:57:10;;;;;;;;;;;19.20;53.40;;;;;;5004868;28;19917;-67
2022/05/29 12:59:41;;;;;;;;;;;19.30;52.20;;;;;;5005930;28;20048;-66
2022/05/29 13:02:26;;;;;;;;;;;19.40;53.60;;;;;;5006355;28;19953;-68
2022/05/29 13:05:06;;;;;;;;;;;19.40;53.50;;;;;;5005430;28;19905;-68
2022/05/29 13:07:35;;;;;;;;;;;19.50;53.50;;;;;;5005845;28;19918;-66
2022/05/29 13:10:05;;;;;;;;;;;19.30;52.40;;;;;;5005608;28;20011;-66
2022/05/29 13:12:32;;;;;;;;;;;19.40;52.20;;;;;;5004914;28;19945;-66
2022/05/29 13:15:03;;;;;;;;;;;19.30;48.20;;;;;;5005918;28;19952;-67
2022/05/29 13:17:29;;;;;;;;;;;19.30;53.50;;;;;;4985299;28;19914;-66
2022/05/29 13:19:59;;;;;;;;;;;19.40;53.50;;;;;;5001052;28;19909;-67
2022/05/29 13:22:43;;;;;;;;;;;19.00;49.30;;;;;;5021049;28;19913;-67
2022/05/29 13:25:09;;;;;;;;;;;19.00;53.40;;;;;;5006065;28;19920;-66
2022/05/29 13:27:34;;;;;;;;;;;19.20;52.90;;;;;;5005614;28;19910;-67
2022/05/29 13:30:01;;;;;;;;;;;19.00;48.10;;;;;;5005498;28;19905;-66
2022/05/29 13:32:27;;;;;;;;;;;19.00;52.70;;;;;;5004248;28;19916;-67
2022/05/29 13:34:53;;;;;;;;;;;19.20;52.90;;;;;;5005741;28;19905;-66
2022/05/29 13:37:38;;;;;;;;;;;19.40;53.00;;;;;;5005621;28;19910;-67
2022/05/29 13:40:07;;;;;;;;;;;19.20;51.80;;;;;;5005443;28;19909;-66
2022/05/29 13:42:37;;;;;;;;;;;19.10;51.30;;;;;;5006656;28;19913;-68
2022/05/29 13:45:21;;;;;;;;;;;19.10;49.70;;;;;;5022919;28;19905;-67
2022/05/29 13:47:47;;;;;;;;;;;19.10;50.40;;;;;;5005531;28;19910;-67
2022/05/29 13:50:12;;;;;;;;;;;19.10;52.40;;;;;;5005504;28;19914;-66
2022/05/29 13:52:46;;;;;;;;;;;19.20;52.00;;;;;;5005218;28;19905;-67
2022/05/29 13:55:13;;;;;;;;;;;19.30;52.90;;;;;;5005407;28;19913;-66
2022/05/29 14:06:37;;;;;;;;;;;19.40;52.90;;;;;;4987837;28;20057;-66
2022/05/29 14:09:06;;;;;;;;;;;19.30;50.50;;;;;;5003687;28;19909;-67
2022/05/29 14:11:58;;;;;;;;;;;19.10;52.10;;;;;;5004767;28;19959;-64
2022/05/29 14:14:29;;;;;;;;;;;19.20;52.90;;;;;;5001487;28;20650;-67
2022/05/29 14:16:56;;;;;;;;;;;19.30;51.20;;;;;;5004243;28;20016;-65
2022/05/29 14:19:40;;;;;;;;;;;19.30;52.80;;;;;;5019118;28;19995;-66
2022/05/29 14:22:23;;;;;;;;;;;19.40;52.70;;;;;;5046450;28;19928;-56
2022/05/29 14:25:14;;;;;;;;;;;19.50;51.70;;;;;;5015254;28;19924;-52
2022/05/29 14:28:02;;;;;;;;;;;19.40;52.70;;;;;;5026671;28;19913;-58
2022/05/29 14:30:27;;;;;;;;;;;19.40;52.60;;;;;;5044420;28;19970;-56
2022/05/29 14:33:11;;;;;;;;;;;18.90;50.90;;;;;;5077021;28;20269;-57
2022/05/29 14:35:46;;;;;;;;;;;19.00;51.70;;;;;;5075763;28;19912;-55
2022/05/29 14:38:18;;;;;;;;;;;19.10;51.90;;;;;;5074523;28;19923;-57
2022/05/29 14:40:53;;;;;;;;;;;18.90;50.20;;;;;;5074828;28;20582;-57
2022/05/29 14:43:19;;;;;;;;;;;19.00;52.00;;;;;;5075594;28;19912;-54
2022/05/29 14:45:58;;;;;;;;;;;19.10;52.30;;;;;;5075762;28;20128;-58
2022/05/29 14:48:32;;;;;;;;;;;19.30;52.90;;;;;;5074225;28;20518;-58
2022/05/29 14:50:59;;;;;;;;;;;19.40;52.70;;;;;;5063069;28;19912;-58
2022/05/29 14:53:30;;;;;;;;;;;19.30;52.50;;;;;;5075694;28;20431;-58
2022/05/29 14:55:58;;;;;;;;;;;19.20;52.40;;;;;;5074081;28;20277;-57
2022/05/29 14:58:34;;;;;;;;;;;18.90;51.30;;;;;;5074169;28;19977;-58
2022/05/29 15:01:06;;;;;;;;;;;19.00;52.10;;;;;;5075455;28;20346;-57
2022/05/29 15:03:35;;;;;;;;;;;19.20;49.90;;;;;;5075311;28;20121;-57
2022/05/29 15:06:01;;;;;;;;;;;19.10;50.20;;;;;;5073767;28;19919;-57